createdAt,value
2018-11-03T00:01:00.745Z,8.87
2018-11-03T00:03:28.634Z,8.78
2018-11-03T00:05:56.936Z,8.82
2018-11-03T00:08:25.228Z,8.78
2018-11-03T00:10:53.329Z,8.59
2018-11-03T00:13:21.256Z,8.54
2018-11-03T00:15:49.217Z,8.50
2018-11-03T00:18:17.266Z,8.54
2018-11-03T00:20:45.226Z,8.59
2018-11-03T00:23:13.291Z,8.47
2018-11-03T00:25:41.267Z,8.50
2018-11-03T00:28:09.363Z,8.55
2018-11-03T00:30:37.365Z,8.49
2018-11-03T00:33:05.585Z,8.47
2018-11-03T00:35:33.526Z,8.45
2018-11-03T00:38:01.468Z,8.53
2018-11-03T00:40:29.463Z,8.58
2018-11-03T00:42:57.575Z,8.59
2018-11-03T00:45:25.501Z,8.57
2018-11-03T00:47:53.424Z,8.65
2018-11-03T00:50:21.425Z,8.51
2018-11-03T00:52:49.341Z,8.41
2018-11-03T00:55:17.311Z,8.49
2018-11-03T00:57:45.213Z,8.45
2018-11-03T01:00:15.301Z,8.39
2018-11-03T01:02:44.383Z,8.37
2018-11-03T01:05:12.821Z,8.40
2018-11-03T01:07:41.592Z,8.45
2018-11-03T01:10:09.768Z,8.45
2018-11-03T01:12:38.508Z,8.42
2018-11-03T01:15:08.289Z,8.47
2018-11-03T01:17:36.204Z,8.52
2018-11-03T01:20:04.851Z,8.47
2018-11-03T01:22:32.757Z,8.60
2018-11-03T01:25:00.725Z,8.73
2018-11-03T01:27:28.660Z,8.71
2018-11-03T01:29:56.600Z,8.59
2018-11-03T01:32:24.591Z,8.51
2018-11-03T01:34:52.582Z,8.49
2018-11-03T01:37:20.537Z,8.43
2018-11-03T01:39:48.513Z,8.38
2018-11-03T01:42:16.474Z,8.33
2018-11-03T01:44:44.437Z,8.38
2018-11-03T01:47:12.386Z,8.31
2018-11-03T01:49:40.379Z,8.28
2018-11-03T01:52:08.309Z,8.22
2018-11-03T01:54:36.360Z,8.17
2018-11-03T01:57:04.492Z,8.20
2018-11-03T01:59:32.539Z,8.56
2018-11-03T02:02:00.524Z,8.47
2018-11-03T02:04:28.418Z,8.20
2018-11-03T02:06:56.344Z,8.06
2018-11-03T02:09:24.297Z,7.95
2018-11-03T02:11:52.389Z,7.80
2018-11-03T02:14:20.335Z,7.75
2018-11-03T02:16:48.458Z,7.67
2018-11-03T02:19:16.474Z,7.64
2018-11-03T02:21:44.507Z,7.59
2018-11-03T02:24:12.616Z,7.55
2018-11-03T02:26:40.624Z,7.57
2018-11-03T02:29:08.934Z,7.70
2018-11-03T02:31:37.152Z,7.67
2018-11-03T02:34:05.125Z,7.68
2018-11-03T02:36:33.136Z,7.63
2018-11-03T02:39:01.078Z,7.57
2018-11-03T02:41:29.348Z,7.51
2018-11-03T02:43:57.399Z,7.47
2018-11-03T02:46:25.301Z,7.49
2018-11-03T02:48:53.214Z,7.39
2018-11-03T02:51:21.161Z,7.29
2018-11-03T02:53:49.241Z,7.26
2018-11-03T02:56:17.240Z,7.22
2018-11-03T02:58:45.395Z,7.31
2018-11-03T03:01:13.361Z,7.42
2018-11-03T03:03:41.425Z,7.37
2018-11-03T03:06:09.343Z,7.40
2018-11-03T03:08:37.263Z,7.45
2018-11-03T03:11:05.292Z,7.47
2018-11-03T03:13:33.232Z,7.51
2018-11-03T03:16:01.195Z,7.55
2018-11-03T03:18:29.161Z,7.59
2018-11-03T03:20:57.091Z,7.73
2018-11-03T03:23:24.985Z,7.66
2018-11-03T03:25:53.029Z,7.67
2018-11-03T03:28:20.965Z,7.80
2018-11-03T03:30:48.900Z,7.73
2018-11-03T03:33:16.883Z,7.66
2018-11-03T03:35:44.923Z,7.70
2018-11-03T03:38:12.817Z,7.67
2018-11-03T03:40:40.856Z,7.58
2018-11-03T03:43:08.773Z,7.63
2018-11-03T03:45:36.751Z,7.65
2018-11-03T03:48:04.746Z,7.62
2018-11-03T03:50:32.707Z,7.77
2018-11-03T03:53:00.753Z,7.72
2018-11-03T03:55:28.734Z,7.47
2018-11-03T03:57:56.876Z,7.39
2018-11-03T04:00:24.945Z,7.33
2018-11-03T04:02:52.971Z,7.21
2018-11-03T04:05:20.928Z,7.09
2018-11-03T04:07:48.899Z,7.05
2018-11-03T04:10:16.955Z,7.03
2018-11-03T04:12:45.096Z,7.11
2018-11-03T04:15:13.126Z,7.10
2018-11-03T04:17:41.191Z,7.19
2018-11-03T04:20:09.164Z,7.20
2018-11-03T04:22:37.189Z,7.19
2018-11-03T04:25:05.446Z,7.16
2018-11-03T04:27:33.711Z,7.10
2018-11-03T04:30:01.674Z,7.11
2018-11-03T04:32:29.666Z,7.11
2018-11-03T04:34:57.782Z,7.08
2018-11-03T04:37:25.760Z,7.03
2018-11-03T04:39:54.053Z,7.01
2018-11-03T04:42:22.024Z,6.99
2018-11-03T04:44:50.223Z,6.98
2018-11-03T04:47:18.243Z,6.91
2018-11-03T04:49:46.283Z,6.84
2018-11-03T04:52:14.186Z,6.81
2018-11-03T04:54:42.135Z,6.79
2018-11-03T04:57:10.297Z,6.83
2018-11-03T04:59:38.578Z,6.76
2018-11-03T05:02:06.806Z,6.74
2018-11-03T05:04:34.732Z,6.69
2018-11-03T05:07:02.835Z,6.68
2018-11-03T05:09:30.793Z,6.75
2018-11-03T05:11:58.774Z,6.87
2018-11-03T05:14:26.664Z,6.90
2018-11-03T05:16:54.702Z,6.98
2018-11-03T05:19:22.691Z,7.01
2018-11-03T05:21:50.758Z,6.94
2018-11-03T05:24:18.919Z,6.94
2018-11-03T05:26:46.977Z,6.94
2018-11-03T05:29:15.017Z,7.07
2018-11-03T05:31:42.987Z,7.08
2018-11-03T05:34:11.322Z,7.04
2018-11-03T05:36:39.441Z,7.12
2018-11-03T05:39:09.732Z,7.14
2018-11-03T05:41:37.909Z,7.19
2018-11-03T05:44:05.874Z,7.26
2018-11-03T05:46:33.894Z,7.30
2018-11-03T05:49:02.113Z,7.35
2018-11-03T05:51:30.014Z,7.40
2018-11-03T05:53:57.984Z,7.51
2018-11-03T05:56:25.965Z,7.43
2018-11-03T05:58:54.196Z,7.45
2018-11-03T06:01:22.172Z,7.51
2018-11-03T06:03:50.472Z,7.53
2018-11-03T06:06:18.467Z,7.76
2018-11-03T06:08:46.699Z,7.74
2018-11-03T06:11:14.941Z,7.80
2018-11-03T06:13:43.192Z,7.98
2018-11-03T06:16:11.660Z,8.08
2018-11-03T06:18:40.545Z,8.29
2018-11-03T06:21:09.057Z,8.62
2018-11-03T06:23:37.360Z,8.84
2018-11-03T06:26:05.878Z,9.04
2018-11-03T06:28:33.991Z,9.41
2018-11-03T06:31:02.210Z,9.32
2018-11-03T06:33:30.342Z,9.49
2018-11-03T06:35:58.388Z,9.91
2018-11-03T06:38:26.440Z,9.93
2018-11-03T06:40:54.542Z,10.38
2018-11-03T06:43:22.715Z,10.54
2018-11-03T06:45:50.859Z,10.45
2018-11-03T06:48:18.876Z,10.71
2018-11-03T06:50:47.136Z,10.45
2018-11-03T06:53:15.460Z,10.10
2018-11-03T06:55:43.397Z,10.15
2018-11-03T06:58:12.661Z,10.16
2018-11-03T07:00:40.867Z,10.37
2018-11-03T07:03:08.900Z,10.21
2018-11-03T07:05:36.989Z,10.32
2018-11-03T07:08:05.512Z,10.40
2018-11-03T07:10:33.626Z,10.73
2018-11-03T07:13:01.961Z,10.71
2018-11-03T07:15:29.959Z,10.68
2018-11-03T07:17:57.900Z,11.07
2018-11-03T07:20:28.682Z,11.13
2018-11-03T07:22:56.971Z,11.10
2018-11-03T07:25:25.176Z,11.07
2018-11-03T07:27:53.408Z,10.86
2018-11-03T07:30:21.712Z,10.72
2018-11-03T07:32:49.881Z,11.01
2018-11-03T07:35:18.076Z,11.32
2018-11-03T07:37:46.207Z,11.50
2018-11-03T07:40:15.238Z,11.52
2018-11-03T07:42:43.575Z,11.59
2018-11-03T07:45:11.682Z,11.95
2018-11-03T07:47:39.633Z,12.07
2018-11-03T07:50:09.789Z,12.05
2018-11-03T07:52:38.068Z,12.27
2018-11-03T07:55:07.449Z,12.45
2018-11-03T07:57:35.883Z,12.40
2018-11-03T08:00:04.525Z,12.46
2018-11-03T08:02:32.798Z,12.47
2018-11-03T08:05:00.948Z,13.13
2018-11-03T08:07:29.142Z,13.26
2018-11-03T08:09:57.431Z,13.82
2018-11-03T08:12:25.501Z,14.04
2018-11-03T08:14:53.510Z,14.21
2018-11-03T08:17:21.490Z,14.55
2018-11-03T08:19:49.805Z,14.85
2018-11-03T08:22:17.867Z,15.07
2018-11-03T08:24:45.913Z,15.02
2018-11-03T08:27:14.020Z,14.83
2018-11-03T08:29:41.956Z,15.16
2018-11-03T08:32:09.984Z,15.27
2018-11-03T08:34:38.021Z,15.66
2018-11-03T08:37:06.128Z,15.91
2018-11-03T08:39:34.128Z,15.98
2018-11-03T08:42:02.136Z,16.26
2018-11-03T08:44:30.093Z,16.33
2018-11-03T08:46:58.141Z,16.11
2018-11-03T08:49:26.083Z,16.40
2018-11-03T08:51:54.048Z,16.37
2018-11-03T08:54:22.013Z,16.56
2018-11-03T08:56:50.036Z,16.61
2018-11-03T08:59:18.183Z,16.89
2018-11-03T09:01:46.228Z,16.72
2018-11-03T09:04:14.193Z,16.68
2018-11-03T09:06:42.322Z,16.37
2018-11-03T09:09:10.530Z,16.52
2018-11-03T09:11:38.575Z,16.54
2018-11-03T09:14:06.964Z,16.52
2018-11-03T09:16:35.074Z,16.90
2018-11-03T09:19:03.347Z,17.05
2018-11-03T09:21:31.568Z,17.28
2018-11-03T09:23:59.641Z,17.44
2018-11-03T09:26:27.665Z,17.29
2018-11-03T09:28:55.692Z,17.52
2018-11-03T09:31:23.744Z,17.51
2018-11-03T09:33:51.745Z,17.64
2018-11-03T09:36:19.947Z,17.67
2018-11-03T09:38:48.184Z,17.76
2018-11-03T09:41:16.004Z,18.22
2018-11-03T09:43:44.138Z,18.62
2018-11-03T09:46:12.144Z,18.77
2018-11-03T09:48:40.232Z,18.52
2018-11-03T09:51:08.390Z,18.71
2018-11-03T09:53:36.553Z,18.66
2018-11-03T09:56:04.667Z,18.96
2018-11-03T09:58:32.946Z,18.77
2018-11-03T10:01:01.024Z,18.91
2018-11-03T10:03:29.165Z,19.21
2018-11-03T10:05:57.398Z,19.26
2018-11-03T10:08:25.773Z,19.16
2018-11-03T10:10:54.002Z,18.59
2018-11-03T10:13:22.250Z,18.49
2018-11-03T10:15:50.407Z,18.77
2018-11-03T10:18:18.426Z,18.56
2018-11-03T10:20:46.667Z,18.92
2018-11-03T10:23:14.956Z,18.52
2018-11-03T10:25:43.180Z,18.92
2018-11-03T10:28:11.588Z,19.02
2018-11-03T10:30:39.743Z,18.90
2018-11-03T10:33:07.884Z,19.07
2018-11-03T10:35:36.068Z,18.99
2018-11-03T10:38:04.521Z,19.27
2018-11-03T10:40:32.834Z,19.58
2018-11-03T10:43:01.111Z,19.54
2018-11-03T10:45:29.294Z,19.59
2018-11-03T10:47:57.495Z,19.73
2018-11-03T10:50:25.748Z,19.71
2018-11-03T10:52:54.446Z,19.67
2018-11-03T10:55:22.683Z,19.98
2018-11-03T10:57:50.962Z,20.01
2018-11-03T11:00:25.758Z,19.96
2018-11-03T11:03:00.055Z,19.95
2018-11-03T11:05:34.455Z,19.81
2018-11-03T11:08:08.900Z,19.70
2018-11-03T11:10:42.634Z,19.90
2018-11-03T11:13:18.911Z,19.81
2018-11-03T11:15:48.199Z,19.86
2018-11-03T11:18:16.632Z,20.07
2018-11-03T11:20:45.737Z,20.14
2018-11-03T11:23:14.306Z,20.31
2018-11-03T11:25:42.823Z,20.52
2018-11-03T11:28:11.074Z,20.51
2018-11-03T11:30:41.646Z,20.65
2018-11-03T11:33:11.604Z,20.84
2018-11-03T11:35:40.125Z,20.66
2018-11-03T11:38:09.632Z,20.78
2018-11-03T11:40:38.771Z,20.81
2018-11-03T11:43:09.535Z,20.69
2018-11-03T11:45:38.008Z,20.71
2018-11-03T11:48:06.382Z,20.97
2018-11-03T11:50:34.678Z,20.96
2018-11-03T11:53:03.067Z,20.95
2018-11-03T11:55:31.663Z,21.03
2018-11-03T11:58:00.126Z,21.03
2018-11-03T12:00:28.590Z,20.88
2018-11-03T12:02:57.089Z,20.82
2018-11-03T12:05:25.409Z,20.74
2018-11-03T12:07:54.097Z,20.75
2018-11-03T12:10:22.614Z,20.84
2018-11-03T12:12:51.403Z,20.88
2018-11-03T12:15:19.832Z,20.97
2018-11-03T12:17:48.174Z,20.96
2018-11-03T12:20:16.519Z,20.91
2018-11-03T12:22:44.913Z,20.88
2018-11-03T12:25:13.265Z,20.79
2018-11-03T12:27:42.175Z,20.67
2018-11-03T12:30:13.146Z,20.70
2018-11-03T12:32:41.595Z,20.71
2018-11-03T12:35:10.775Z,20.59
2018-11-03T12:37:39.922Z,20.64
2018-11-03T12:40:11.725Z,20.66
2018-11-03T12:42:40.057Z,20.73
2018-11-03T12:45:09.185Z,20.65
2018-11-03T12:47:37.542Z,20.62
2018-11-03T12:50:07.557Z,20.52
2018-11-03T12:52:36.202Z,20.43
2018-11-03T12:55:05.107Z,20.55
2018-11-03T12:57:33.370Z,20.51
2018-11-03T13:00:01.758Z,20.48
2018-11-03T13:02:30.483Z,20.48
2018-11-03T13:04:58.919Z,20.44
2018-11-03T13:07:27.080Z,20.40
2018-11-03T13:09:55.526Z,20.31
2018-11-03T13:12:23.887Z,20.24
2018-11-03T13:14:52.366Z,20.35
2018-11-03T13:17:21.613Z,20.27
2018-11-03T13:19:51.087Z,20.25
2018-11-03T13:22:19.486Z,20.18
2018-11-03T13:24:47.642Z,20.11
2018-11-03T13:27:15.806Z,20.08
2018-11-03T13:29:44.018Z,20.04
2018-11-03T13:32:12.229Z,20.05
2018-11-03T13:34:40.595Z,20.02
2018-11-03T13:37:08.791Z,20.07
2018-11-03T13:39:37.095Z,20.05
2018-11-03T13:42:05.538Z,19.94
2018-11-03T13:44:34.185Z,19.84
2018-11-03T13:47:02.779Z,19.74
2018-11-03T13:49:31.497Z,19.66
2018-11-03T13:51:59.930Z,19.52
2018-11-03T13:54:28.059Z,19.38
2018-11-03T13:56:56.289Z,19.24
2018-11-03T13:59:24.437Z,19.13
2018-11-03T14:01:52.672Z,19.04
2018-11-03T14:04:20.887Z,18.91
2018-11-03T14:06:49.001Z,18.85
2018-11-03T14:09:17.273Z,18.73
2018-11-03T14:11:45.593Z,18.61
2018-11-03T14:14:13.934Z,18.47
2018-11-03T14:16:42.371Z,18.36
2018-11-03T14:19:10.631Z,18.22
2018-11-03T14:21:38.892Z,18.07
2018-11-03T14:24:07.042Z,17.86
2018-11-03T14:26:35.259Z,17.72
2018-11-03T14:29:03.595Z,17.57
2018-11-03T14:31:32.052Z,17.34
2018-11-03T14:34:00.482Z,17.13
2018-11-03T14:36:28.864Z,16.98
2018-11-03T14:38:57.900Z,16.80
2018-11-03T14:41:26.464Z,16.63
2018-11-03T14:43:54.869Z,16.44
2018-11-03T14:46:23.739Z,16.26
2018-11-03T14:48:52.094Z,16.08
2018-11-03T14:51:20.491Z,15.90
2018-11-03T14:53:49.202Z,15.75
2018-11-03T14:56:17.605Z,15.59
2018-11-03T14:58:46.919Z,15.44
2018-11-03T15:01:15.259Z,15.27
2018-11-03T15:03:43.586Z,15.32
2018-11-03T15:06:11.714Z,15.26
2018-11-03T15:08:40.145Z,15.24
2018-11-03T15:11:08.843Z,15.01
2018-11-03T15:13:37.173Z,14.61
2018-11-03T15:16:05.837Z,14.42
2018-11-03T15:18:34.158Z,14.25
2018-11-03T15:21:03.116Z,14.13
2018-11-03T15:23:31.224Z,13.98
2018-11-03T15:25:59.469Z,14.01
2018-11-03T15:28:27.824Z,13.93
2018-11-03T15:30:55.948Z,13.82
2018-11-03T15:33:24.093Z,13.97
2018-11-03T15:35:52.469Z,13.97
2018-11-03T15:38:20.720Z,13.78
2018-11-03T15:40:49.550Z,13.83
2018-11-03T15:43:18.133Z,13.64
2018-11-03T15:45:46.486Z,13.52
2018-11-03T15:48:14.980Z,13.46
2018-11-03T15:50:49.136Z,13.32
2018-11-03T15:53:17.607Z,13.56
2018-11-03T15:55:45.931Z,13.80
2018-11-03T15:58:14.440Z,13.98
2018-11-03T16:00:43.017Z,13.82
2018-11-03T16:03:11.239Z,13.63
2018-11-03T16:05:39.432Z,13.81
2018-11-03T16:08:07.584Z,14.01
2018-11-03T16:10:35.745Z,14.48
2018-11-03T16:13:04.069Z,15.27
2018-11-03T16:15:32.433Z,14.69
2018-11-03T16:18:01.199Z,14.99
2018-11-03T16:20:30.281Z,14.42
2018-11-03T16:22:58.748Z,14.30
2018-11-03T16:25:27.093Z,14.43
2018-11-03T16:27:55.314Z,14.27
2018-11-03T16:30:23.908Z,14.39
2018-11-03T16:32:52.260Z,14.73
2018-11-03T16:35:20.715Z,14.45
2018-11-03T16:37:48.864Z,14.89
2018-11-03T16:40:17.566Z,15.06
2018-11-03T16:42:46.086Z,15.10
2018-11-03T16:45:15.631Z,15.17
2018-11-03T16:47:43.996Z,15.03
2018-11-03T16:50:13.814Z,15.00
2018-11-03T16:52:42.471Z,14.93
2018-11-03T16:55:11.818Z,15.35
2018-11-03T16:57:40.091Z,15.18
2018-11-03T17:00:10.632Z,14.93
2018-11-03T17:02:39.097Z,14.87
2018-11-03T17:05:07.999Z,15.31
2018-11-03T17:07:36.297Z,14.93
2018-11-03T17:10:06.540Z,14.32
2018-11-03T17:12:34.978Z,13.99
2018-11-03T17:15:03.220Z,13.70
2018-11-03T17:17:31.507Z,13.71
2018-11-03T17:20:00.273Z,14.26
2018-11-03T17:22:28.771Z,14.16
2018-11-03T17:24:57.211Z,14.31
2018-11-03T17:27:25.892Z,13.92
2018-11-03T17:29:54.250Z,13.79
2018-11-03T17:32:22.434Z,14.32
2018-11-03T17:34:50.688Z,14.18
2018-11-03T17:37:19.112Z,14.35
2018-11-03T17:39:47.482Z,14.36
2018-11-03T17:42:15.670Z,14.40
2018-11-03T17:44:43.857Z,14.21
2018-11-03T17:47:12.048Z,14.17
2018-11-03T17:49:40.374Z,14.23
2018-11-03T17:52:08.604Z,14.05
2018-11-03T17:54:37.925Z,14.34
2018-11-03T17:57:06.061Z,14.28
2018-11-03T17:59:34.270Z,13.60
2018-11-03T18:02:02.805Z,13.72
2018-11-03T18:04:31.173Z,13.95
2018-11-03T18:06:59.798Z,13.42
2018-11-03T18:09:28.549Z,13.50
2018-11-03T18:11:56.798Z,13.19
2018-11-03T18:14:25.317Z,13.17
2018-11-03T18:16:53.795Z,13.16
2018-11-03T18:19:22.053Z,12.64
2018-11-03T18:21:50.584Z,12.12
2018-11-03T18:24:18.859Z,11.70
2018-11-03T18:26:47.482Z,11.61
2018-11-03T18:29:15.813Z,11.62
2018-11-03T18:31:44.609Z,11.20
2018-11-03T18:34:13.145Z,11.10
2018-11-03T18:36:41.692Z,10.89
2018-11-03T18:39:11.225Z,10.96
2018-11-03T18:41:39.917Z,11.02
2018-11-03T18:44:08.934Z,11.09
2018-11-03T18:46:37.405Z,11.43
2018-11-03T18:49:05.858Z,11.96
2018-11-03T18:51:34.365Z,12.13
2018-11-03T18:54:02.846Z,11.96
2018-11-03T18:56:31.414Z,12.45
2018-11-03T18:58:59.830Z,12.02
2018-11-03T19:01:28.197Z,11.43
2018-11-03T19:03:56.463Z,11.77
2018-11-03T19:06:24.864Z,12.21
2018-11-03T19:08:53.130Z,11.65
2018-11-03T19:11:21.423Z,11.28
2018-11-03T19:13:49.952Z,11.11
2018-11-03T19:16:18.287Z,11.10
2018-11-03T19:18:46.752Z,10.83
2018-11-03T19:21:15.225Z,10.59
2018-11-03T19:23:43.699Z,10.73
2018-11-03T19:26:12.155Z,10.89
2018-11-03T19:28:40.512Z,10.79
2018-11-03T19:31:09.114Z,10.41
2018-11-03T19:33:37.404Z,10.82
2018-11-03T19:36:06.298Z,11.04
2018-11-03T19:38:34.769Z,11.13
2018-11-03T19:41:02.976Z,11.21
2018-11-03T19:43:31.190Z,10.99
2018-11-03T19:45:59.332Z,10.77
2018-11-03T19:48:27.509Z,10.84
2018-11-03T19:50:55.825Z,11.22
2018-11-03T19:53:24.007Z,10.85
2018-11-03T19:55:52.394Z,10.81
2018-11-03T19:58:20.675Z,10.85
2018-11-03T20:00:48.881Z,10.34
2018-11-03T20:03:17.156Z,9.87
2018-11-03T20:05:45.328Z,9.61
2018-11-03T20:08:13.451Z,9.55
2018-11-03T20:10:41.795Z,9.35
2018-11-03T20:13:09.963Z,9.38
2018-11-03T20:15:38.143Z,9.58
2018-11-03T20:18:06.439Z,9.37
2018-11-03T20:20:34.493Z,9.19
2018-11-03T20:23:02.754Z,8.98
2018-11-03T20:25:30.860Z,8.84
2018-11-03T20:27:59.050Z,8.81
2018-11-03T20:30:27.291Z,8.76
2018-11-03T20:32:55.850Z,8.68
2018-11-03T20:35:24.112Z,8.67
2018-11-03T20:37:52.273Z,8.64
2018-11-03T20:40:20.481Z,8.63
2018-11-03T20:42:48.739Z,8.70
2018-11-03T20:45:17.055Z,8.70
2018-11-03T20:47:45.206Z,8.67
2018-11-03T20:50:14.232Z,8.55
2018-11-03T20:52:42.516Z,8.42
2018-11-03T20:55:11.554Z,8.36
2018-11-03T20:57:40.038Z,8.25
2018-11-03T21:00:10.323Z,8.12
2018-11-03T21:02:38.571Z,8.11
2018-11-03T21:05:07.658Z,8.03
2018-11-03T21:07:35.828Z,7.94
2018-11-03T21:10:04.277Z,7.88
2018-11-03T21:12:32.450Z,7.80
2018-11-03T21:15:00.559Z,7.77
2018-11-03T21:17:28.819Z,7.87
2018-11-03T21:19:57.113Z,7.80
2018-11-03T21:22:25.329Z,7.65
2018-11-03T21:24:53.504Z,7.39
2018-11-03T21:27:21.676Z,7.39
2018-11-03T21:29:49.952Z,7.19
2018-11-03T21:32:18.249Z,7.88
2018-11-03T21:34:46.461Z,7.87
2018-11-03T21:37:14.596Z,7.74
2018-11-03T21:39:42.828Z,8.51
2018-11-03T21:42:11.003Z,8.56
2018-11-03T21:44:39.450Z,8.45
2018-11-03T21:47:07.827Z,8.75
2018-11-03T21:49:35.885Z,9.19
2018-11-03T21:52:04.369Z,9.13
2018-11-03T21:54:32.610Z,9.13
2018-11-03T21:57:01.575Z,9.39
2018-11-03T21:59:29.913Z,9.53
2018-11-03T22:01:58.033Z,9.40
2018-11-03T22:04:26.016Z,9.58
2018-11-03T22:06:53.991Z,9.65
2018-11-03T22:09:22.035Z,9.62
2018-11-03T22:11:50.056Z,9.44
2018-11-03T22:14:18.085Z,9.09
2018-11-03T22:16:46.116Z,8.72
2018-11-03T22:19:14.253Z,8.94
2018-11-03T22:21:42.215Z,8.78
2018-11-03T22:24:10.087Z,8.59
2018-11-03T22:26:38.012Z,8.12
2018-11-03T22:29:06.137Z,7.75
2018-11-03T22:31:34.103Z,7.48
2018-11-03T22:34:02.064Z,7.61
2018-11-03T22:36:30.240Z,7.47
2018-11-03T22:38:58.925Z,7.21
2018-11-03T22:41:27.023Z,7.08
2018-11-03T22:43:55.093Z,7.00
2018-11-03T22:46:23.075Z,6.92
2018-11-03T22:48:51.158Z,6.72
2018-11-03T22:51:19.214Z,6.53
2018-11-03T22:53:47.141Z,6.58
2018-11-03T22:56:15.162Z,6.47
2018-11-03T22:58:43.151Z,6.35
2018-11-03T23:01:11.043Z,6.21
2018-11-03T23:03:39.000Z,6.17
2018-11-03T23:06:07.031Z,6.26
2018-11-03T23:08:35.030Z,6.19
2018-11-03T23:11:03.055Z,6.13
2018-11-03T23:13:31.080Z,6.09
2018-11-03T23:15:59.367Z,6.05
2018-11-03T23:18:27.310Z,5.91
2018-11-03T23:20:55.273Z,5.85
2018-11-03T23:23:23.225Z,5.77
2018-11-03T23:25:51.121Z,5.61
2018-11-03T23:28:19.072Z,5.56
2018-11-03T23:30:46.982Z,5.64
2018-11-03T23:33:14.920Z,5.53
2018-11-03T23:35:42.840Z,5.50
2018-11-03T23:38:10.877Z,5.51
2018-11-03T23:40:38.769Z,5.41
2018-11-03T23:43:06.704Z,5.34
2018-11-03T23:45:34.596Z,5.38
2018-11-03T23:48:02.559Z,5.31
2018-11-03T23:50:30.558Z,5.25
2018-11-03T23:52:58.407Z,5.23
2018-11-03T23:55:26.345Z,5.22
2018-11-03T23:57:54.517Z,5.30
